Time,TemperatureF,DewpointF,PressureIn,WindDirection,WindDirectionDegrees,WindSpeedMPH,WindSpeedGustMPH,Humidity,HourlyPrecipIn,Conditions,Clouds,dailyrainin,SoftwareType,DateUTC
2013-09-03 00:23:00,56.0,49.0,30.00,ENE,76,0.0,2.0,78,0.00,,,0.00,,2013-09-03 05:23:00,
2013-09-03 00:52:00,55.0,49.0,30.01,NNW,337,0.0,1.0,81,0.00,,,0.00,,2013-09-03 05:52:00,
2013-09-03 01:12:00,55.0,49.0,30.00,NNE,15,1.0,2.0,81,0.00,,,0.00,,2013-09-03 06:12:00,
2013-09-03 01:22:00,55.0,49.0,30.00,NNE,31,0.0,2.0,81,0.00,,,0.00,,2013-09-03 06:22:00,
2013-09-03 01:52:00,54.0,49.0,30.01,NNE,32,0.0,1.0,83,0.00,,,0.00,,2013-09-03 06:52:00,
2013-09-03 02:12:00,54.0,49.0,30.01,NNE,32,0.0,0.0,83,0.00,,,0.00,,2013-09-03 07:12:00,
2013-09-03 02:22:00,54.0,49.0,30.01,NNE,32,0.0,1.0,83,0.00,,,0.00,,2013-09-03 07:22:00,
2013-09-03 02:53:00,53.0,48.0,30.02,NNE,32,0.0,1.0,84,0.00,,,0.00,,2013-09-03 07:53:00,
2013-09-03 03:11:00,53.0,49.0,30.02,NNE,30,0.0,1.0,85,0.00,,,0.00,,2013-09-03 08:11:00,
2013-09-03 03:22:00,53.0,49.0,30.02,NNE,31,0.0,1.0,85,0.00,,,0.00,,2013-09-03 08:22:00,
2013-09-03 03:52:00,52.0,48.0,30.03,NNE,31,0.0,0.0,87,0.00,,,0.00,,2013-09-03 08:52:00,
2013-09-03 04:11:00,52.0,48.0,30.03,NNE,30,0.0,0.0,87,0.00,,,0.00,,2013-09-03 09:11:00,
2013-09-03 04:21:00,51.0,48.0,30.03,NNE,31,0.0,0.0,88,0.00,,,0.00,,2013-09-03 09:21:00,
2013-09-03 04:53:00,51.0,48.0,30.03,NNE,31,0.0,0.0,89,0.00,,,0.00,,2013-09-03 09:53:00,
2013-09-03 05:23:00,50.0,47.0,30.03,NNE,31,0.0,0.0,90,0.00,,,0.00,,2013-09-03 10:23:00,
2013-09-03 05:53:00,50.0,47.0,30.04,NNE,31,0.0,0.0,91,0.00,,,0.00,,2013-09-03 10:53:00,
2013-09-03 06:12:00,49.0,46.0,30.04,NNE,31,0.0,0.0,91,0.00,,,0.00,,2013-09-03 11:12:00,
2013-09-03 06:23:00,49.0,46.0,30.04,NNE,31,0.0,0.0,91,0.00,,,0.00,,2013-09-03 11:23:00,
2013-09-03 06:52:00,48.0,45.0,30.05,NNE,31,0.0,0.0,91,0.00,,,0.00,,2013-09-03 11:52:00,
2013-09-03 07:12:00,48.0,45.0,30.05,NNE,30,0.0,0.0,91,0.00,,,0.00,,2013-09-03 12:12:00,
2013-09-03 07:21:00,49.0,47.0,30.06,NNE,31,0.0,0.0,92,0.00,,,0.00,,2013-09-03 12:21:00,
2013-09-03 08:02:00,-999.0,-99.9,30.07,West,279,1.0,4.0,-999,0.00,,,0.00,,2013-09-03 13:02:00,
2013-09-03 08:11:00,-999.0,-99.9,30.07,West,279,1.0,4.0,-999,0.00,,,0.00,,2013-09-03 13:11:00,
2013-09-03 08:22:00,-999.0,-99.9,30.07,NW,320,0.0,2.0,-999,0.00,,,0.00,,2013-09-03 13:22:00,
2013-09-03 08:32:00,-999.0,-99.9,30.08,WNW,291,1.0,5.0,-999,0.00,,,0.00,,2013-09-03 13:32:00,
2013-09-03 09:52:00,59.0,52.0,30.09,SW,222,3.0,8.0,79,0.00,,,0.00,,2013-09-03 14:52:00,
2013-09-03 10:22:00,62.0,53.0,30.09,NNW,333,1.0,5.0,73,0.00,,,0.00,,2013-09-03 15:22:00,
2013-09-03 10:54:00,64.0,54.0,30.08,West,279,2.0,8.0,69,0.00,,,0.00,,2013-09-03 15:54:00,
2013-09-03 11:14:00,64.0,54.0,30.08,North,5,0.0,6.0,69,0.00,,,0.00,,2013-09-03 16:14:00,
2013-09-03 11:24:00,65.0,54.0,30.08,SW,225,1.0,7.0,67,0.00,,,0.00,,2013-09-03 16:24:00,
2013-09-03 11:54:00,67.0,54.0,30.07,NW,312,1.0,6.0,63,0.00,,,0.00,,2013-09-03 16:54:00,
2013-09-03 12:23:00,68.0,54.0,30.06,West,281,5.0,8.0,60,0.00,,,0.00,,2013-09-03 17:23:00,
2013-09-03 12:52:00,69.0,54.0,30.06,NW,318,1.0,5.0,58,0.00,,,0.00,,2013-09-03 17:52:00,
2013-09-03 13:22:00,71.0,55.0,30.05,WNW,284,2.0,6.0,57,0.00,,,0.00,,2013-09-03 18:22:00,
2013-09-03 13:52:00,72.0,55.0,30.04,SW,233,3.0,8.0,56,0.00,,,0.00,,2013-09-03 18:52:00,
2013-09-03 14:11:00,72.0,54.0,30.04,WSW,246,3.0,8.0,54,0.00,,,0.00,,2013-09-03 19:11:00,
2013-09-03 14:22:00,73.0,54.0,30.03,WSW,239,1.0,7.0,52,0.00,,,0.00,,2013-09-03 19:22:00,
2013-09-03 14:52:00,74.0,54.0,30.02,NW,326,3.0,7.0,50,0.00,,,0.00,,2013-09-03 19:52:00,
2013-09-03 15:11:00,75.0,56.0,30.02,WNW,288,2.0,9.0,51,0.00,,,0.00,,2013-09-03 20:11:00,
2013-09-03 15:22:00,74.0,55.0,30.01,SSW,198,4.0,9.0,52,0.00,,,0.00,,2013-09-03 20:22:00,
2013-09-03 15:42:00,73.0,55.0,30.01,SSW,211,5.0,8.0,53,0.00,,,0.00,,2013-09-03 20:42:00,
2013-09-03 15:53:00,73.0,55.0,30.01,SSE,153,1.0,7.0,53,0.00,,,0.00,,2013-09-03 20:53:00,
2013-09-03 16:22:00,75.0,56.0,30.01,South,190,5.0,8.0,52,0.00,,,0.00,,2013-09-03 21:22:00,
2013-09-03 16:54:00,75.0,55.0,30.00,WSW,248,3.0,10.0,50,0.00,,,0.00,,2013-09-03 21:54:00,
2013-09-03 17:23:00,75.0,56.0,30.00,SSW,211,3.0,9.0,51,0.00,,,0.00,,2013-09-03 22:23:00,
2013-09-03 17:53:00,74.0,56.0,29.99,WSW,249,2.0,10.0,53,0.00,,,0.00,,2013-09-03 22:53:00,
2013-09-03 18:22:00,73.0,56.0,29.99,SW,229,2.0,8.0,55,0.00,,,0.00,,2013-09-03 23:22:00,
2013-09-03 18:54:00,71.0,55.0,29.98,West,259,2.0,7.0,58,0.00,,,0.00,,2013-09-03 23:54:00,
2013-09-03 19:12:00,70.0,55.0,29.99,SW,230,1.0,7.0,60,0.00,,,0.00,,2013-09-04 00:12:00,
2013-09-03 19:22:00,69.0,55.0,29.99,SW,222,1.0,6.0,61,0.00,,,0.00,,2013-09-04 00:22:00,
2013-09-03 19:42:00,68.0,55.0,30.00,SSW,210,0.0,6.0,63,0.00,,,0.00,,2013-09-04 00:42:00,
2013-09-03 19:52:00,68.0,56.0,30.00,SW,225,1.0,6.0,65,0.00,,,0.00,,2013-09-04 00:52:00,
2013-09-03 20:11:00,67.0,55.0,30.01,SSW,210,0.0,4.0,66,0.00,,,0.00,,2013-09-04 01:11:00,
2013-09-03 20:22:00,66.0,55.0,30.01,SSW,207,0.0,2.0,68,0.00,,,0.00,,2013-09-04 01:22:00,
2013-09-03 20:42:00,65.0,55.0,30.01,SSW,209,0.0,1.0,70,0.00,,,0.00,,2013-09-04 01:42:00,
2013-09-03 20:53:00,65.0,55.0,30.01,SSW,210,0.0,2.0,71,0.00,,,0.00,,2013-09-04 01:53:00,
2013-09-03 21:11:00,64.0,54.0,30.01,SSW,210,0.0,1.0,71,0.00,,,0.00,,2013-09-04 02:11:00,
2013-09-03 21:22:00,63.0,54.0,30.01,SSW,210,0.0,0.0,72,0.00,,,0.00,,2013-09-04 02:22:00,
2013-09-03 21:42:00,62.0,54.0,30.00,SSW,210,0.0,1.0,74,0.00,,,0.00,,2013-09-04 02:42:00,
2013-09-03 21:52:00,62.0,54.0,30.01,SSW,210,0.0,0.0,76,0.00,,,0.00,,2013-09-04 02:52:00,
2013-09-03 22:22:00,61.0,54.0,30.01,SSW,210,0.0,0.0,77,0.00,,,0.00,,2013-09-04 03:22:00,
2013-09-03 22:54:00,59.0,53.0,30.01,SSW,210,0.0,0.0,81,0.00,,,0.00,,2013-09-04 03:54:00,
2013-09-03 23:14:00,58.0,53.0,30.01,SSW,210,0.0,0.0,83,0.00,,,0.00,,2013-09-04 04:14:00,
2013-09-03 23:54:00,56.0,52.0,30.01,SSW,210,0.0,0.0,86,0.00,,,0.00,,2013-09-04 04:54:00,